sensor_id;sensor_type;location;lat;lon;timestamp;P1;durP1;ratioP1;P2;durP2;ratioP2
44078;SDS011;29744;49.078;12.878;2024-01-10T00:01:00;3.25;;;1.70;;
44078;SDS011;29744;49.078;12.878;2024-01-10T00:06:01;3.60;;;1.90;;
44078;SDS011;29744;49.078;12.878;2024-01-10T00:11:01;2.97;;;1.58;;
44078;SDS011;29744;49.078;12.878;2024-01-10T00:16:02;2.88;;;1.50;;
44078;SDS011;29744;49.078;12.878;2024-01-10T00:21:02;3.30;;;1.80;;
44078;SDS011;29744;49.078;12.878;2024-01-10T00:26:02;3.10;;;1.80;;
44078;SDS011;29744;49.078;12.878;2024-01-10T00:31:03;3.50;;;1.60;;
44078;SDS011;29744;49.078;12.878;2024-01-10T00:36:04;3.33;;;1.65;;
44078;SDS011;29744;49.078;12.878;2024-01-10T00:41:04;2.95;;;1.55;;
44078;SDS011;29744;49.078;12.878;2024-01-10T00:46:05;3.10;;;1.56;;
44078;SDS011;29744;49.078;12.878;2024-01-10T00:51:05;2.92;;;2.08;;
44078;SDS011;29744;49.078;12.878;2024-01-10T00:56:08;3.17;;;1.50;;
44078;SDS011;29744;49.078;12.878;2024-01-10T01:01:12;2.63;;;1.70;;
44078;SDS011;29744;49.078;12.878;2024-01-10T01:06:12;2.58;;;1.50;;
44078;SDS011;29744;49.078;12.878;2024-01-10T01:11:12;3.30;;;1.80;;
44078;SDS011;29744;49.078;12.878;2024-01-10T01:16:14;2.88;;;1.60;;
44078;SDS011;29744;49.078;12.878;2024-01-10T01:21:14;3.10;;;1.67;;
44078;SDS011;29744;49.078;12.878;2024-01-10T01:26:15;3.50;;;1.60;;
44078;SDS011;29744;49.078;12.878;2024-01-10T01:31:15;3.00;;;1.50;;
44078;SDS011;29744;49.078;12.878;2024-01-10T01:36:15;3.08;;;1.50;;
44078;SDS011;29744;49.078;12.878;2024-01-10T01:41:16;2.78;;;1.60;;
44078;SDS011;29744;49.078;12.878;2024-01-10T01:46:17;2.38;;;1.40;;
44078;SDS011;29744;49.078;12.878;2024-01-10T01:51:17;2.55;;;1.33;;
44078;SDS011;29744;49.078;12.878;2024-01-10T01:56:20;2.85;;;1.50;;
44078;SDS011;29744;49.078;12.878;2024-01-10T02:01:21;3.22;;;1.90;;
44078;SDS011;29744;49.078;12.878;2024-01-10T02:06:21;3.38;;;1.67;;
44078;SDS011;29744;49.078;12.878;2024-01-10T02:11:22;2.92;;;1.50;;
44078;SDS011;29744;49.078;12.878;2024-01-10T02:16:24;3.53;;;1.60;;
44078;SDS011;29744;49.078;12.878;2024-01-10T02:21:25;2.35;;;1.38;;
44078;SDS011;29744;49.078;12.878;2024-01-10T02:26:25;2.97;;;1.50;;
44078;SDS011;29744;49.078;12.878;2024-01-10T02:31:27;2.60;;;1.45;;
44078;SDS011;29744;49.078;12.878;2024-01-10T02:36:27;3.55;;;1.73;;
44078;SDS011;29744;49.078;12.878;2024-01-10T02:41:27;3.90;;;1.80;;
44078;SDS011;29744;49.078;12.878;2024-01-10T02:46:28;3.50;;;1.70;;
44078;SDS011;29744;49.078;12.878;2024-01-10T02:51:28;2.88;;;1.65;;
44078;SDS011;29744;49.078;12.878;2024-01-10T02:56:30;2.63;;;1.50;;
44078;SDS011;29744;49.078;12.878;2024-01-10T03:01:30;2.97;;;1.45;;
44078;SDS011;29744;49.078;12.878;2024-01-10T03:06:30;2.83;;;1.50;;
44078;SDS011;29744;49.078;12.878;2024-01-10T03:11:31;3.40;;;1.67;;
44078;SDS011;29744;49.078;12.878;2024-01-10T03:16:33;2.72;;;1.60;;
44078;SDS011;29744;49.078;12.878;2024-01-10T03:21:33;2.40;;;1.35;;
44078;SDS011;29744;49.078;12.878;2024-01-10T03:26:34;3.30;;;1.80;;
44078;SDS011;29744;49.078;12.878;2024-01-10T03:31:34;2.58;;;1.45;;
44078;SDS011;29744;49.078;12.878;2024-01-10T03:36:34;2.60;;;1.45;;
44078;SDS011;29744;49.078;12.878;2024-01-10T03:41:35;3.08;;;1.48;;
44078;SDS011;29744;49.078;12.878;2024-01-10T03:46:35;3.36;;;1.68;;
44078;SDS011;29744;49.078;12.878;2024-01-10T03:51:36;3.33;;;1.80;;
44078;SDS011;29744;49.078;12.878;2024-01-10T03:56:37;2.60;;;1.30;;
44078;SDS011;29744;49.078;12.878;2024-01-10T04:01:37;2.80;;;1.60;;
44078;SDS011;29744;49.078;12.878;2024-01-10T04:06:39;3.17;;;1.73;;
44078;SDS011;29744;49.078;12.878;2024-01-10T04:11:39;2.85;;;1.60;;
44078;SDS011;29744;49.078;12.878;2024-01-10T04:16:39;2.82;;;1.54;;
44078;SDS011;29744;49.078;12.878;2024-01-10T04:21:40;2.72;;;1.48;;
44078;SDS011;29744;49.078;12.878;2024-01-10T04:26:40;3.40;;;1.50;;
44078;SDS011;29744;49.078;12.878;2024-01-10T04:31:41;2.88;;;1.40;;
44078;SDS011;29744;49.078;12.878;2024-01-10T04:36:42;2.75;;;1.50;;
44078;SDS011;29744;49.078;12.878;2024-01-10T04:41:42;2.67;;;1.60;;
44078;SDS011;29744;49.078;12.878;2024-01-10T04:46:43;3.20;;;1.45;;
44078;SDS011;29744;49.078;12.878;2024-01-10T04:51:43;2.70;;;1.52;;
44078;SDS011;29744;49.078;12.878;2024-01-10T04:56:45;2.65;;;1.40;;
44078;SDS011;29744;49.078;12.878;2024-01-10T05:01:45;2.70;;;1.48;;
44078;SDS011;29744;49.078;12.878;2024-01-10T05:06:45;2.63;;;1.50;;
44078;SDS011;29744;49.078;12.878;2024-01-10T05:11:46;2.80;;;1.40;;
44078;SDS011;29744;49.078;12.878;2024-01-10T05:16:51;2.58;;;1.45;;
44078;SDS011;29744;49.078;12.878;2024-01-10T05:21:53;2.70;;;1.40;;
44078;SDS011;29744;49.078;12.878;2024-01-10T05:26:54;2.50;;;1.40;;
44078;SDS011;29744;49.078;12.878;2024-01-10T05:31:55;3.33;;;1.58;;
44078;SDS011;29744;49.078;12.878;2024-01-10T05:36:55;2.53;;;1.52;;
44078;SDS011;29744;49.078;12.878;2024-01-10T05:41:55;2.83;;;1.60;;
44078;SDS011;29744;49.078;12.878;2024-01-10T05:46:56;2.92;;;1.63;;
44078;SDS011;29744;49.078;12.878;2024-01-10T05:51:59;2.42;;;1.30;;
44078;SDS011;29744;49.078;12.878;2024-01-10T05:56:59;2.92;;;1.50;;
44078;SDS011;29744;49.078;12.878;2024-01-10T06:02:02;2.50;;;1.48;;
44078;SDS011;29744;49.078;12.878;2024-01-10T06:07:03;2.90;;;1.50;;
44078;SDS011;29744;49.078;12.878;2024-01-10T06:12:04;2.17;;;1.35;;
44078;SDS011;29744;49.078;12.878;2024-01-10T06:17:04;2.92;;;1.60;;
44078;SDS011;29744;49.078;12.878;2024-01-10T06:22:05;2.00;;;1.20;;
44078;SDS011;29744;49.078;12.878;2024-01-10T06:27:06;2.50;;;1.40;;
44078;SDS011;29744;49.078;12.878;2024-01-10T06:32:06;2.25;;;1.33;;
44078;SDS011;29744;49.078;12.878;2024-01-10T06:37:07;3.00;;;1.60;;
44078;SDS011;29744;49.078;12.878;2024-01-10T06:42:08;2.47;;;1.42;;
44078;SDS011;29744;49.078;12.878;2024-01-10T06:47:11;2.78;;;1.50;;
44078;SDS011;29744;49.078;12.878;2024-01-10T06:52:11;2.92;;;1.58;;
44078;SDS011;29744;49.078;12.878;2024-01-10T06:57:11;2.45;;;1.40;;
44078;SDS011;29744;49.078;12.878;2024-01-10T07:02:12;2.75;;;1.45;;
44078;SDS011;29744;49.078;12.878;2024-01-10T07:07:12;2.88;;;1.70;;
44078;SDS011;29744;49.078;12.878;2024-01-10T07:12:13;3.10;;;1.50;;
44078;SDS011;29744;49.078;12.878;2024-01-10T07:17:13;2.88;;;1.50;;
44078;SDS011;29744;49.078;12.878;2024-01-10T07:22:13;2.67;;;1.30;;
44078;SDS011;29744;49.078;12.878;2024-01-10T07:27:14;2.92;;;1.50;;
44078;SDS011;29744;49.078;12.878;2024-01-10T07:32:14;2.63;;;1.50;;
44078;SDS011;29744;49.078;12.878;2024-01-10T08:59:53;3.75;;;1.90;;
44078;SDS011;29744;49.078;12.878;2024-01-10T09:04:53;4.03;;;2.15;;
44078;SDS011;29744;49.078;12.878;2024-01-10T09:09:54;3.83;;;2.10;;
44078;SDS011;29744;49.078;12.878;2024-01-10T09:14:55;3.30;;;1.92;;
44078;SDS011;29744;49.078;12.878;2024-01-10T09:19:55;3.25;;;1.75;;
44078;SDS011;29744;49.078;12.878;2024-01-10T09:24:55;3.12;;;1.76;;
44078;SDS011;29744;49.078;12.878;2024-01-10T09:29:56;4.03;;;2.10;;
44078;SDS011;29744;49.078;12.878;2024-01-10T09:34:56;3.67;;;1.92;;
44078;SDS011;29744;49.078;12.878;2024-01-10T09:39:57;3.47;;;2.00;;
44078;SDS011;29744;49.078;12.878;2024-01-10T09:44:58;3.30;;;1.90;;
44078;SDS011;29744;49.078;12.878;2024-01-10T09:49:59;3.38;;;2.17;;
44078;SDS011;29744;49.078;12.878;2024-01-10T09:55:02;3.17;;;1.80;;
44078;SDS011;29744;49.078;12.878;2024-01-10T10:00:03;3.70;;;2.17;;
44078;SDS011;29744;49.078;12.878;2024-01-10T10:05:08;3.35;;;2.03;;
44078;SDS011;29744;49.078;12.878;2024-01-10T10:24:02;4.20;;;2.30;;
44078;SDS011;29744;49.078;12.878;2024-01-10T10:29:09;3.28;;;1.92;;
44078;SDS011;29744;49.078;12.878;2024-01-10T10:34:09;3.25;;;1.88;;
44078;SDS011;29744;49.078;12.878;2024-01-10T10:39:10;4.28;;;2.30;;
44078;SDS011;29744;49.078;12.878;2024-01-10T10:44:17;3.40;;;1.80;;
44078;SDS011;29744;49.078;12.878;2024-01-10T10:49:23;3.28;;;1.90;;
44078;SDS011;29744;49.078;12.878;2024-01-10T10:54:30;3.42;;;1.90;;
44078;SDS011;29744;49.078;12.878;2024-01-10T10:59:32;3.45;;;2.08;;
44078;SDS011;29744;49.078;12.878;2024-01-10T11:04:34;3.00;;;1.70;;
44078;SDS011;29744;49.078;12.878;2024-01-10T11:09:35;3.70;;;2.10;;
44078;SDS011;29744;49.078;12.878;2024-01-10T11:14:52;3.55;;;2.10;;
44078;SDS011;29744;49.078;12.878;2024-01-10T11:20:21;3.55;;;2.05;;
44078;SDS011;29744;49.078;12.878;2024-01-10T11:25:38;4.20;;;2.20;;
44078;SDS011;29744;49.078;12.878;2024-01-10T11:30:57;3.55;;;2.00;;
44078;SDS011;29744;49.078;12.878;2024-01-10T11:41:21;3.80;;;1.90;;
44078;SDS011;29744;49.078;12.878;2024-01-10T11:46:23;3.97;;;2.03;;
44078;SDS011;29744;49.078;12.878;2024-01-10T11:51:23;3.85;;;2.30;;
44078;SDS011;29744;49.078;12.878;2024-01-10T11:56:24;6.20;;;2.72;;
44078;SDS011;29744;49.078;12.878;2024-01-10T12:01:42;6.50;;;2.70;;
44078;SDS011;29744;49.078;12.878;2024-01-10T12:06:42;8.02;;;3.92;;
44078;SDS011;29744;49.078;12.878;2024-01-10T12:11:45;7.38;;;4.60;;
44078;SDS011;29744;49.078;12.878;2024-01-10T12:16:45;7.68;;;5.05;;
44078;SDS011;29744;49.078;12.878;2024-01-10T12:21:46;10.50;;;5.05;;
44078;SDS011;29744;49.078;12.878;2024-01-10T12:26:48;9.35;;;5.28;;
44078;SDS011;29744;49.078;12.878;2024-01-10T13:25:03;11.57;;;6.45;;
44078;SDS011;29744;49.078;12.878;2024-01-10T13:30:04;9.02;;;5.80;;
44078;SDS011;29744;49.078;12.878;2024-01-10T13:35:06;10.88;;;6.30;;
44078;SDS011;29744;49.078;12.878;2024-01-10T13:40:07;9.10;;;5.70;;
44078;SDS011;29744;49.078;12.878;2024-01-10T13:45:10;9.98;;;5.80;;
44078;SDS011;29744;49.078;12.878;2024-01-10T13:50:13;10.13;;;5.72;;
44078;SDS011;29744;49.078;12.878;2024-01-10T13:55:14;10.43;;;5.20;;
44078;SDS011;29744;49.078;12.878;2024-01-10T14:00:14;9.30;;;5.45;;
44078;SDS011;29744;49.078;12.878;2024-01-10T14:05:15;7.78;;;5.10;;
44078;SDS011;29744;49.078;12.878;2024-01-10T14:10:15;9.20;;;5.28;;
44078;SDS011;29744;49.078;12.878;2024-01-10T14:15:16;8.15;;;5.15;;
44078;SDS011;29744;49.078;12.878;2024-01-10T14:20:16;8.55;;;5.47;;
44078;SDS011;29744;49.078;12.878;2024-01-10T14:25:16;7.88;;;5.10;;
44078;SDS011;29744;49.078;12.878;2024-01-10T14:30:17;9.77;;;5.68;;
44078;SDS011;29744;49.078;12.878;2024-01-10T14:35:17;8.40;;;4.93;;
44078;SDS011;29744;49.078;12.878;2024-01-10T14:40:17;9.35;;;6.03;;
44078;SDS011;29744;49.078;12.878;2024-01-10T14:45:18;8.23;;;5.40;;
44078;SDS011;29744;49.078;12.878;2024-01-10T14:50:20;8.98;;;5.40;;
44078;SDS011;29744;49.078;12.878;2024-01-10T14:55:21;10.23;;;5.53;;
44078;SDS011;29744;49.078;12.878;2024-01-10T15:00:21;8.85;;;5.20;;
44078;SDS011;29744;49.078;12.878;2024-01-10T15:05:22;8.70;;;5.43;;
44078;SDS011;29744;49.078;12.878;2024-01-10T15:10:23;9.55;;;5.53;;
44078;SDS011;29744;49.078;12.878;2024-01-10T15:15:24;9.07;;;5.22;;
44078;SDS011;29744;49.078;12.878;2024-01-10T15:20:24;7.88;;;4.76;;
44078;SDS011;29744;49.078;12.878;2024-01-10T15:25:25;10.23;;;5.30;;
44078;SDS011;29744;49.078;12.878;2024-01-10T15:30:25;11.88;;;6.28;;
44078;SDS011;29744;49.078;12.878;2024-01-10T15:35:26;13.27;;;7.47;;
44078;SDS011;29744;49.078;12.878;2024-01-10T15:40:26;14.18;;;7.10;;
44078;SDS011;29744;49.078;12.878;2024-01-10T15:45:26;11.82;;;6.78;;
44078;SDS011;29744;49.078;12.878;2024-01-10T15:50:28;10.15;;;6.45;;
44078;SDS011;29744;49.078;12.878;2024-01-10T15:55:28;10.55;;;6.45;;
44078;SDS011;29744;49.078;12.878;2024-01-10T16:00:28;10.85;;;6.35;;
44078;SDS011;29744;49.078;12.878;2024-01-10T16:05:29;11.20;;;6.18;;
44078;SDS011;29744;49.078;12.878;2024-01-10T16:10:29;10.20;;;6.57;;
44078;SDS011;29744;49.078;12.878;2024-01-10T16:15:30;9.43;;;6.47;;
44078;SDS011;29744;49.078;12.878;2024-01-10T16:20:30;11.63;;;6.40;;
44078;SDS011;29744;49.078;12.878;2024-01-10T16:25:30;10.60;;;6.66;;
44078;SDS011;29744;49.078;12.878;2024-01-10T16:30:31;14.40;;;9.18;;
44078;SDS011;29744;49.078;12.878;2024-01-10T16:35:31;15.35;;;9.68;;
44078;SDS011;29744;49.078;12.878;2024-01-10T16:40:31;15.07;;;9.80;;
44078;SDS011;29744;49.078;12.878;2024-01-10T16:45:32;13.82;;;8.77;;
44078;SDS011;29744;49.078;12.878;2024-01-10T16:50:34;13.73;;;8.70;;
44078;SDS011;29744;49.078;12.878;2024-01-10T16:55:35;13.82;;;8.82;;
44078;SDS011;29744;49.078;12.878;2024-01-10T17:00:36;13.23;;;8.07;;
44078;SDS011;29744;49.078;12.878;2024-01-10T17:05:36;13.02;;;7.85;;
44078;SDS011;29744;49.078;12.878;2024-01-10T17:10:37;12.35;;;7.72;;
44078;SDS011;29744;49.078;12.878;2024-01-10T17:15:37;11.46;;;7.54;;
44078;SDS011;29744;49.078;12.878;2024-01-10T17:20:37;11.35;;;7.85;;
44078;SDS011;29744;49.078;12.878;2024-01-10T17:25:39;11.60;;;7.70;;
44078;SDS011;29744;49.078;12.878;2024-01-10T17:30:40;12.98;;;7.53;;
44078;SDS011;29744;49.078;12.878;2024-01-10T17:35:40;13.40;;;7.43;;
44078;SDS011;29744;49.078;12.878;2024-01-10T17:40:40;10.95;;;6.55;;
44078;SDS011;29744;49.078;12.878;2024-01-10T17:45:41;10.98;;;6.82;;
44078;SDS011;29744;49.078;12.878;2024-01-10T17:50:41;9.32;;;6.40;;
44078;SDS011;29744;49.078;12.878;2024-01-10T17:55:41;10.15;;;6.43;;
44078;SDS011;29744;49.078;12.878;2024-01-10T18:00:42;10.90;;;6.65;;
44078;SDS011;29744;49.078;12.878;2024-01-10T18:05:42;12.02;;;6.97;;
44078;SDS011;29744;49.078;12.878;2024-01-10T18:10:43;8.75;;;5.93;;
44078;SDS011;29744;49.078;12.878;2024-01-10T18:15:45;9.23;;;6.20;;
44078;SDS011;29744;49.078;12.878;2024-01-10T18:20:45;9.23;;;6.28;;
44078;SDS011;29744;49.078;12.878;2024-01-10T18:25:46;9.40;;;5.85;;
44078;SDS011;29744;49.078;12.878;2024-01-10T18:30:48;8.82;;;6.00;;
44078;SDS011;29744;49.078;12.878;2024-01-10T18:35:48;8.07;;;5.03;;
44078;SDS011;29744;49.078;12.878;2024-01-10T18:40:50;8.88;;;5.78;;
44078;SDS011;29744;49.078;12.878;2024-01-10T18:45:52;7.80;;;5.55;;
44078;SDS011;29744;49.078;12.878;2024-01-10T18:50:52;9.15;;;5.80;;
44078;SDS011;29744;49.078;12.878;2024-01-10T18:55:54;8.52;;;5.30;;
44078;SDS011;29744;49.078;12.878;2024-01-10T19:00:54;7.60;;;5.43;;
44078;SDS011;29744;49.078;12.878;2024-01-10T19:05:55;8.82;;;4.95;;
44078;SDS011;29744;49.078;12.878;2024-01-10T19:10:55;8.30;;;5.50;;
44078;SDS011;29744;49.078;12.878;2024-01-10T19:15:55;8.20;;;5.40;;
44078;SDS011;29744;49.078;12.878;2024-01-10T19:20:56;8.02;;;5.10;;
44078;SDS011;29744;49.078;12.878;2024-01-10T19:25:56;7.03;;;4.75;;
44078;SDS011;29744;49.078;12.878;2024-01-10T19:30:57;7.53;;;4.95;;
44078;SDS011;29744;49.078;12.878;2024-01-10T19:35:58;8.07;;;5.45;;
44078;SDS011;29744;49.078;12.878;2024-01-10T19:40:58;8.02;;;5.30;;
44078;SDS011;29744;49.078;12.878;2024-01-10T19:45:59;8.18;;;5.28;;
44078;SDS011;29744;49.078;12.878;2024-01-10T19:50:59;8.63;;;5.68;;
44078;SDS011;29744;49.078;12.878;2024-01-10T19:55:59;6.88;;;4.53;;
44078;SDS011;29744;49.078;12.878;2024-01-10T20:01:00;6.95;;;4.60;;
44078;SDS011;29744;49.078;12.878;2024-01-10T20:06:00;7.57;;;4.80;;
44078;SDS011;29744;49.078;12.878;2024-01-10T20:11:01;7.63;;;5.28;;
44078;SDS011;29744;49.078;12.878;2024-01-10T20:16:02;7.55;;;4.72;;
44078;SDS011;29744;49.078;12.878;2024-01-10T20:21:03;6.65;;;4.40;;
44078;SDS011;29744;49.078;12.878;2024-01-10T20:26:06;6.68;;;4.63;;
44078;SDS011;29744;49.078;12.878;2024-01-10T20:31:07;8.25;;;4.57;;
44078;SDS011;29744;49.078;12.878;2024-01-10T20:36:07;7.25;;;4.90;;
44078;SDS011;29744;49.078;12.878;2024-01-10T20:41:08;6.80;;;4.50;;
44078;SDS011;29744;49.078;12.878;2024-01-10T20:46:08;7.85;;;4.95;;
44078;SDS011;29744;49.078;12.878;2024-01-10T20:51:08;7.60;;;4.50;;
44078;SDS011;29744;49.078;12.878;2024-01-10T20:56:09;7.32;;;4.80;;
44078;SDS011;29744;49.078;12.878;2024-01-10T21:01:10;6.80;;;4.18;;
44078;SDS011;29744;49.078;12.878;2024-01-10T21:06:10;7.32;;;4.57;;
44078;SDS011;29744;49.078;12.878;2024-01-10T21:11:11;6.82;;;4.25;;
44078;SDS011;29744;49.078;12.878;2024-01-10T21:16:11;6.93;;;4.18;;
44078;SDS011;29744;49.078;12.878;2024-01-10T21:21:12;6.10;;;3.78;;
44078;SDS011;29744;49.078;12.878;2024-01-10T21:26:12;6.68;;;4.70;;
44078;SDS011;29744;49.078;12.878;2024-01-10T21:31:13;6.15;;;4.50;;
44078;SDS011;29744;49.078;12.878;2024-01-10T21:36:14;6.20;;;3.97;;
44078;SDS011;29744;49.078;12.878;2024-01-10T21:41:14;6.38;;;4.10;;
44078;SDS011;29744;49.078;12.878;2024-01-10T21:46:14;7.15;;;4.15;;
44078;SDS011;29744;49.078;12.878;2024-01-10T21:51:15;6.97;;;4.13;;
44078;SDS011;29744;49.078;12.878;2024-01-10T21:56:15;7.03;;;4.07;;
44078;SDS011;29744;49.078;12.878;2024-01-10T22:01:15;6.70;;;4.20;;
44078;SDS011;29744;49.078;12.878;2024-01-10T22:06:16;5.65;;;3.88;;
44078;SDS011;29744;49.078;12.878;2024-01-10T22:11:16;6.55;;;4.25;;
44078;SDS011;29744;49.078;12.878;2024-01-10T22:16:16;5.57;;;3.70;;
44078;SDS011;29744;49.078;12.878;2024-01-10T22:21:17;6.43;;;4.07;;
44078;SDS011;29744;49.078;12.878;2024-01-10T22:26:17;5.63;;;3.60;;
44078;SDS011;29744;49.078;12.878;2024-01-10T22:31:17;6.45;;;3.97;;
44078;SDS011;29744;49.078;12.878;2024-01-10T22:36:18;6.30;;;3.75;;
44078;SDS011;29744;49.078;12.878;2024-01-10T22:41:18;6.38;;;3.90;;
44078;SDS011;29744;49.078;12.878;2024-01-10T22:46:18;5.97;;;3.72;;
44078;SDS011;29744;49.078;12.878;2024-01-10T22:51:19;5.95;;;3.92;;
44078;SDS011;29744;49.078;12.878;2024-01-10T22:56:19;6.90;;;4.00;;
44078;SDS011;29744;49.078;12.878;2024-01-10T23:01:19;5.65;;;3.65;;
44078;SDS011;29744;49.078;12.878;2024-01-10T23:06:25;6.05;;;3.85;;
44078;SDS011;29744;49.078;12.878;2024-01-10T23:11:25;6.30;;;3.63;;
44078;SDS011;29744;49.078;12.878;2024-01-10T23:16:26;5.70;;;3.70;;
44078;SDS011;29744;49.078;12.878;2024-01-10T23:21:26;5.18;;;3.50;;
44078;SDS011;29744;49.078;12.878;2024-01-10T23:26:27;6.55;;;4.25;;
44078;SDS011;29744;49.078;12.878;2024-01-10T23:31:27;5.40;;;3.68;;
44078;SDS011;29744;49.078;12.878;2024-01-10T23:36:27;5.57;;;3.67;;
44078;SDS011;29744;49.078;12.878;2024-01-10T23:41:27;6.63;;;3.83;;
44078;SDS011;29744;49.078;12.878;2024-01-10T23:46:28;5.13;;;3.40;;
44078;SDS011;29744;49.078;12.878;2024-01-10T23:51:28;6.15;;;4.00;;
44078;SDS011;29744;49.078;12.878;2024-01-10T23:56:28;5.18;;;3.53;;
